createdAt,value
2023-05-05T00:01:03.125Z,51339.56
2023-05-05T00:03:32.633Z,51343.59
2023-05-05T00:06:01.466Z,51351.59
2023-05-05T00:08:30.040Z,51345.59
2023-05-05T00:10:58.621Z,51357.63
2023-05-05T00:13:27.361Z,51351.59
2023-05-05T00:15:56.040Z,51327.53
2023-05-05T00:18:25.978Z,51335.56
2023-05-05T00:20:54.786Z,51361.63
2023-05-05T00:23:23.368Z,51371.66
2023-05-05T00:25:51.795Z,51343.59
2023-05-05T00:28:20.728Z,51393.72
2023-05-05T00:30:49.193Z,51381.69
2023-05-05T00:33:17.739Z,51381.69
2023-05-05T00:35:47.470Z,51357.63
2023-05-05T00:38:15.886Z,51395.72
2023-05-05T00:40:44.301Z,51383.69
2023-05-05T00:43:13.715Z,51397.75
2023-05-05T00:45:47.426Z,51427.84
2023-05-05T00:48:18.765Z,51375.69
2023-05-05T00:50:48.713Z,51419.81
2023-05-05T00:53:17.410Z,51381.69
2023-05-05T00:55:46.477Z,51405.75
2023-05-05T00:58:15.076Z,51401.75
2023-05-05T01:00:43.477Z,51423.81
2023-05-05T01:03:15.307Z,51369.66
2023-05-05T01:05:59.732Z,51383.69
2023-05-05T01:08:41.551Z,51383.69
2023-05-05T01:11:15.458Z,51335.56
2023-05-05T01:13:52.286Z,51359.63
2023-05-05T01:16:25.014Z,51339.56
2023-05-05T01:18:59.539Z,51357.63
2023-05-05T01:21:32.950Z,51333.56
2023-05-05T01:24:34.861Z,51321.50
2023-05-05T01:27:47.398Z,51347.59
2023-05-05T01:30:34.600Z,51351.59
2023-05-05T01:33:07.659Z,51321.50
2023-05-05T01:35:41.582Z,51305.47
2023-05-05T01:38:15.526Z,51315.50
2023-05-05T01:40:48.111Z,51373.66
2023-05-05T01:43:18.636Z,51393.72
2023-05-05T01:45:48.853Z,51375.69
2023-05-05T01:48:21.357Z,51407.78
2023-05-05T01:50:52.060Z,51337.56
2023-05-05T01:53:22.309Z,51401.75
2023-05-05T01:55:52.575Z,51389.72
2023-05-05T01:58:22.977Z,51419.81
2023-05-05T02:00:52.628Z,51391.72
2023-05-05T02:03:26.709Z,51383.69
2023-05-05T02:05:56.814Z,51419.81
2023-05-05T02:08:27.759Z,51417.81
2023-05-05T02:10:57.003Z,51449.91
2023-05-05T02:13:26.806Z,51431.84
2023-05-05T02:15:56.876Z,51431.84
2023-05-05T02:18:28.409Z,51395.72
2023-05-05T02:20:57.094Z,51379.69
2023-05-05T02:23:25.887Z,51427.84
2023-05-05T02:25:58.600Z,51395.72
2023-05-05T02:28:36.118Z,51437.84
2023-05-05T02:31:08.015Z,51421.81
2023-05-05T02:33:40.368Z,51393.72
2023-05-05T02:36:13.388Z,51399.75
2023-05-05T02:38:55.544Z,51377.69
2023-05-05T02:41:26.735Z,51395.72
2023-05-05T02:43:57.685Z,51397.75
2023-05-05T02:46:28.941Z,51419.81
2023-05-05T02:48:59.623Z,51411.78
2023-05-05T02:51:28.758Z,51413.78
2023-05-05T02:54:01.182Z,51395.72
2023-05-05T02:56:40.791Z,51391.72
2023-05-05T02:59:16.444Z,51443.88
2023-05-05T03:02:01.705Z,51365.66
2023-05-05T03:04:39.797Z,51409.78
2023-05-05T03:07:14.397Z,51409.78
2023-05-05T03:09:56.788Z,51425.81
2023-05-05T03:12:38.579Z,51397.75
2023-05-05T03:15:19.337Z,51397.75
2023-05-05T03:17:48.580Z,51437.84
2023-05-05T03:20:20.025Z,51465.94
2023-05-05T03:22:51.447Z,51421.81
2023-05-05T03:25:20.004Z,51423.81
2023-05-05T03:27:49.265Z,51443.88
2023-05-05T03:30:20.924Z,51443.88
2023-05-05T03:32:52.444Z,51447.88
2023-05-05T03:35:26.058Z,51451.91
2023-05-05T03:37:55.489Z,51423.81
2023-05-05T03:40:36.295Z,51482.00
2023-05-05T03:43:09.661Z,51465.94
2023-05-05T03:45:39.623Z,51429.84
2023-05-05T03:48:09.613Z,51488.00
2023-05-05T03:50:40.912Z,51475.97
2023-05-05T03:53:09.820Z,51479.97
2023-05-05T03:55:38.432Z,51467.94
2023-05-05T03:58:07.027Z,51443.88
2023-05-05T04:00:35.436Z,51486.00
2023-05-05T04:03:04.460Z,51469.97
2023-05-05T04:05:33.079Z,51490.00
2023-05-05T04:08:03.335Z,51482.00
2023-05-05T04:10:32.090Z,51506.06
2023-05-05T04:13:00.569Z,51494.03
2023-05-05T04:15:30.907Z,51469.97
2023-05-05T04:17:59.411Z,51471.97
2023-05-05T04:20:28.108Z,51490.00
2023-05-05T04:22:57.773Z,51479.97
2023-05-05T04:25:27.953Z,51479.97
2023-05-05T04:27:56.623Z,51469.97
2023-05-05T04:30:25.165Z,51475.97
2023-05-05T04:32:53.962Z,51514.09
2023-05-05T04:35:23.426Z,51461.94
2023-05-05T04:37:54.474Z,51459.94
2023-05-05T04:40:23.006Z,51455.91
2023-05-05T04:42:52.797Z,51461.94
2023-05-05T04:45:21.225Z,51475.97
2023-05-05T04:47:51.120Z,51482.00
2023-05-05T04:50:19.836Z,51484.00
2023-05-05T04:52:48.647Z,51482.00
2023-05-05T04:55:17.800Z,51518.09
2023-05-05T04:57:46.498Z,51477.97
2023-05-05T05:00:16.925Z,51471.97
2023-05-05T05:02:45.384Z,51496.03
2023-05-05T05:05:13.903Z,51469.97
2023-05-05T05:07:42.332Z,51451.91
2023-05-05T05:10:11.388Z,51453.91
2023-05-05T05:12:39.913Z,51431.84
2023-05-05T05:15:09.724Z,51459.94
2023-05-05T05:17:39.832Z,51455.91
2023-05-05T05:20:09.752Z,51441.88
2023-05-05T05:22:39.193Z,51403.75
2023-05-05T05:25:11.622Z,51375.69
2023-05-05T05:27:41.686Z,51449.91
2023-05-05T05:30:11.986Z,51403.75
2023-05-05T05:32:42.157Z,51411.78
2023-05-05T05:35:11.365Z,51383.69
2023-05-05T05:37:40.379Z,51383.69
2023-05-05T05:40:10.496Z,51417.81
2023-05-05T05:42:41.152Z,51359.63
2023-05-05T05:45:10.876Z,51343.59
2023-05-05T05:47:40.263Z,51317.50
2023-05-05T05:50:10.725Z,51367.66
2023-05-05T05:52:39.342Z,51285.41
2023-05-05T05:55:09.693Z,51255.31
2023-05-05T05:57:39.438Z,51245.28
2023-05-05T06:00:10.847Z,51219.22
2023-05-05T06:02:44.910Z,51209.19
2023-05-05T06:05:18.573Z,51219.22
2023-05-05T06:07:48.346Z,51171.06
2023-05-05T06:10:27.611Z,51120.94
2023-05-05T06:13:02.972Z,51088.84
2023-05-05T06:15:33.142Z,51155.03
2023-05-05T06:18:03.510Z,51149.00
2023-05-05T06:20:34.369Z,51106.88
2023-05-05T06:23:02.773Z,51104.88
2023-05-05T06:25:34.354Z,51020.66
2023-05-05T06:28:02.922Z,51096.88
2023-05-05T06:30:31.352Z,51132.97
2023-05-05T06:32:59.724Z,51134.97
2023-05-05T06:35:28.208Z,51179.09
2023-05-05T06:37:58.054Z,51161.03
2023-05-05T06:40:26.662Z,51143.00
2023-05-05T06:42:55.005Z,51175.09
2023-05-05T06:45:29.078Z,51147.00
2023-05-05T06:47:57.587Z,51157.03
2023-05-05T06:50:25.929Z,51090.84
2023-05-05T06:52:54.270Z,51098.88
2023-05-05T06:55:24.826Z,51066.78
2023-05-05T06:57:53.411Z,51092.84
2023-05-05T07:00:22.584Z,51044.72
2023-05-05T07:02:51.042Z,51010.63
2023-05-05T07:05:19.498Z,51000.59
2023-05-05T07:07:52.511Z,51056.75
2023-05-05T07:10:22.596Z,51024.66
2023-05-05T07:12:54.636Z,51034.69
2023-05-05T07:15:27.961Z,50972.50
2023-05-05T07:17:57.865Z,51004.59
2023-05-05T07:20:27.022Z,51064.78
2023-05-05T07:22:55.485Z,50978.53
2023-05-05T07:25:23.803Z,51012.63
2023-05-05T07:27:53.553Z,50926.38
2023-05-05T07:30:22.258Z,50988.56
2023-05-05T07:32:51.034Z,50928.38
2023-05-05T07:35:19.509Z,50936.41
2023-05-05T07:37:48.042Z,50904.31
2023-05-05T07:40:16.434Z,50914.34
2023-05-05T07:42:44.819Z,51002.59
2023-05-05T07:45:14.670Z,50948.44
2023-05-05T07:47:43.025Z,51006.59
2023-05-05T07:50:12.295Z,50990.56
2023-05-05T07:55:11.974Z,50910.31
2023-05-05T07:57:40.647Z,50930.38
2023-05-05T08:00:10.624Z,50912.34
2023-05-05T08:02:44.069Z,50976.50
2023-05-05T08:05:12.847Z,50998.59
2023-05-05T08:07:41.923Z,51034.69
2023-05-05T08:10:11.484Z,51072.78
2023-05-05T08:12:40.870Z,51076.81
2023-05-05T08:15:10.985Z,51104.88
2023-05-05T08:17:49.165Z,51058.75
2023-05-05T08:20:18.152Z,51070.78
2023-05-05T08:22:49.834Z,51084.81
2023-05-05T08:25:18.216Z,51060.75
2023-05-05T08:27:46.687Z,50992.56
2023-05-05T08:30:17.122Z,51068.78
2023-05-05T08:32:47.885Z,51034.69
2023-05-05T08:35:17.758Z,51006.59
2023-05-05T08:37:46.234Z,51026.66
2023-05-05T08:40:15.375Z,51040.69
2023-05-05T08:42:45.528Z,50938.41
2023-05-05T08:45:13.966Z,50990.56
2023-05-05T08:47:43.229Z,51026.66
2023-05-05T08:50:13.434Z,51088.84
2023-05-05T08:52:51.294Z,51076.81
2023-05-05T08:55:25.322Z,51062.75
2023-05-05T08:57:56.376Z,51024.66
2023-05-05T09:00:26.588Z,51082.81
2023-05-05T09:02:57.799Z,50966.50
2023-05-05T09:05:26.884Z,50970.50
2023-05-05T09:07:56.937Z,50962.47
2023-05-05T09:10:30.203Z,51026.66
2023-05-05T09:12:58.952Z,50996.56
2023-05-05T09:15:28.364Z,51032.69
2023-05-05T09:17:58.678Z,50986.53
2023-05-05T09:20:34.753Z,50972.50
2023-05-05T09:23:10.595Z,51030.66
2023-05-05T09:25:39.656Z,51006.59
2023-05-05T09:28:12.460Z,51006.59
2023-05-05T09:30:42.144Z,51020.66
2023-05-05T09:33:11.576Z,51080.81
2023-05-05T09:35:50.106Z,51082.81
2023-05-05T09:38:20.576Z,51040.69
2023-05-05T09:40:50.925Z,51086.84
2023-05-05T09:43:21.883Z,51052.72
2023-05-05T09:45:50.923Z,51074.81
2023-05-05T09:48:27.363Z,51066.78
2023-05-05T09:50:56.596Z,51066.78
2023-05-05T09:53:27.473Z,51092.84
2023-05-05T09:55:56.490Z,51112.91
2023-05-05T09:58:26.935Z,51126.94
2023-05-05T10:00:56.492Z,51183.13
2023-05-05T10:03:25.646Z,51185.13
2023-05-05T10:05:55.756Z,51183.13
2023-05-05T10:08:28.051Z,51203.16
2023-05-05T10:10:59.510Z,51132.97
2023-05-05T10:13:29.043Z,51193.13
2023-05-05T10:15:58.877Z,51136.97
2023-05-05T10:18:28.603Z,51185.13
2023-05-05T10:20:59.469Z,51136.97
2023-05-05T10:23:39.185Z,51173.09
2023-05-05T10:26:09.110Z,51195.16
2023-05-05T10:28:43.455Z,51195.16
2023-05-05T10:31:25.765Z,51239.28
2023-05-05T10:34:01.220Z,51211.19
2023-05-05T10:36:31.582Z,51201.16
2023-05-05T10:39:02.356Z,51223.22
2023-05-05T10:41:31.758Z,51203.16
2023-05-05T10:44:02.767Z,51193.13
2023-05-05T10:46:32.935Z,51187.13
2023-05-05T10:49:07.717Z,51247.28
2023-05-05T10:51:45.479Z,51263.34
2023-05-05T10:54:24.146Z,51255.31
2023-05-05T10:56:53.475Z,51231.25
2023-05-05T10:59:40.850Z,51241.28
2023-05-05T11:02:24.497Z,51241.28
2023-05-05T11:05:14.968Z,51215.22
2023-05-05T11:07:43.722Z,51185.13
2023-05-05T11:10:15.106Z,51217.22
2023-05-05T11:13:21.769Z,51175.09
2023-05-05T11:15:50.715Z,51189.13
2023-05-05T11:18:38.831Z,51213.19
2023-05-05T11:21:18.055Z,51141.00
2023-05-05T11:23:51.490Z,51128.94
2023-05-05T11:26:51.180Z,51134.97
2023-05-05T11:29:19.969Z,51106.88
2023-05-05T11:32:11.657Z,51108.91
2023-05-05T11:34:49.700Z,51044.72
2023-05-05T11:37:18.135Z,51032.69
2023-05-05T11:40:00.864Z,51028.66
2023-05-05T11:42:30.860Z,51014.63
2023-05-05T11:44:59.541Z,51042.72
2023-05-05T11:47:30.629Z,51056.75
2023-05-05T11:49:59.904Z,51064.78
2023-05-05T11:52:28.607Z,51006.59
2023-05-05T11:55:03.554Z,50952.44
2023-05-05T11:57:33.526Z,51032.69
2023-05-05T12:00:05.265Z,51030.66
2023-05-05T12:02:35.808Z,51124.94
2023-05-05T12:05:05.140Z,51082.81
2023-05-05T12:07:34.298Z,51032.69
2023-05-05T12:10:02.970Z,51018.63
2023-05-05T12:12:37.955Z,50968.50
2023-05-05T12:15:08.153Z,51106.88
2023-05-05T12:17:42.495Z,51100.88
2023-05-05T12:20:12.696Z,51118.94
2023-05-05T12:22:41.967Z,51070.78
2023-05-05T12:25:11.156Z,50988.56
2023-05-05T12:27:41.251Z,51024.66
2023-05-05T12:30:16.340Z,50916.34
2023-05-05T12:32:45.256Z,50814.06
2023-05-05T12:35:14.673Z,50822.06
2023-05-05T12:37:44.109Z,50804.03
2023-05-05T12:40:46.507Z,50834.13
2023-05-05T12:43:38.621Z,50812.06
2023-05-05T12:46:09.300Z,50940.41
2023-05-05T12:48:39.399Z,50896.28
2023-05-05T12:51:12.738Z,51072.78
2023-05-05T12:53:41.149Z,51046.72
2023-05-05T12:56:30.864Z,51058.75
2023-05-05T12:59:00.910Z,51062.75
2023-05-05T13:01:29.685Z,51062.75
2023-05-05T13:04:09.766Z,51086.84
2023-05-05T13:06:38.748Z,51072.78
2023-05-05T13:09:08.802Z,51064.78
2023-05-05T13:11:38.158Z,51062.75
2023-05-05T13:14:09.218Z,51088.84
2023-05-05T13:16:37.695Z,51116.91
2023-05-05T13:19:06.156Z,51118.94
2023-05-05T13:21:34.534Z,51132.97
2023-05-05T13:24:19.823Z,51122.94
2023-05-05T13:26:51.599Z,51134.97
2023-05-05T13:29:21.561Z,51116.91
2023-05-05T13:31:50.971Z,51118.94
2023-05-05T13:34:19.519Z,51163.06
2023-05-05T13:36:48.362Z,51130.97
2023-05-05T13:39:17.055Z,51169.06
2023-05-05T13:41:45.598Z,51179.09
2023-05-05T13:44:14.633Z,51187.13
2023-05-05T13:46:44.396Z,51171.06
2023-05-05T13:49:12.824Z,51215.22
2023-05-05T13:51:41.195Z,51189.13
2023-05-05T13:54:09.614Z,51239.28
2023-05-05T13:56:38.278Z,51159.03
2023-05-05T13:59:06.672Z,51181.09
2023-05-05T14:01:35.198Z,51189.13
2023-05-05T14:04:05.932Z,51199.16
2023-05-05T14:06:35.697Z,51203.16
2023-05-05T14:09:06.265Z,51211.19
2023-05-05T14:11:35.182Z,51193.13
2023-05-05T14:14:03.780Z,51161.03
2023-05-05T14:16:32.357Z,51122.94
2023-05-05T14:19:01.507Z,51147.00
2023-05-05T14:21:31.646Z,51163.06
2023-05-05T14:24:00.333Z,51141.00
2023-05-05T14:26:29.059Z,51165.06
2023-05-05T14:28:57.508Z,51126.94
2023-05-05T14:31:26.133Z,51120.94
2023-05-05T14:33:54.848Z,51042.72
2023-05-05T14:36:24.000Z,51066.78
2023-05-05T14:38:53.888Z,51092.84
2023-05-05T14:41:22.369Z,51070.78
2023-05-05T14:43:51.081Z,51114.91
2023-05-05T14:46:19.643Z,51132.97
2023-05-05T14:48:48.349Z,51134.97
2023-05-05T14:51:17.084Z,51203.16
2023-05-05T14:53:45.482Z,51151.03
2023-05-05T14:56:15.800Z,51181.09
2023-05-05T14:58:44.597Z,51153.03
2023-05-05T15:01:12.967Z,51171.06
2023-05-05T15:03:41.479Z,51221.22
2023-05-05T15:06:09.972Z,51161.03
2023-05-05T15:08:38.931Z,51147.00
2023-05-05T15:11:07.704Z,51171.06
2023-05-05T15:13:39.994Z,51195.16
2023-05-05T15:16:09.291Z,51193.13
2023-05-05T15:18:38.584Z,51149.00
2023-05-05T15:21:07.581Z,51165.06
2023-05-05T15:23:36.446Z,51165.06
2023-05-05T15:26:04.922Z,51149.00
2023-05-05T15:28:33.378Z,51165.06
2023-05-05T15:31:03.231Z,51155.03
2023-05-05T15:33:32.228Z,51201.16
2023-05-05T15:36:00.930Z,51143.00
2023-05-05T15:38:30.972Z,51149.00
2023-05-05T15:40:59.982Z,51171.06
2023-05-05T15:43:29.121Z,51207.19
2023-05-05T15:45:57.733Z,51195.16
2023-05-05T15:48:27.584Z,51183.13
2023-05-05T15:50:56.555Z,51175.09
2023-05-05T15:53:26.858Z,51201.16
2023-05-05T15:55:55.508Z,51187.13
2023-05-05T15:58:24.279Z,51185.13
2023-05-05T16:00:52.775Z,51199.16
2023-05-05T16:03:21.254Z,51161.03
2023-05-05T16:05:51.126Z,51209.19
2023-05-05T16:08:20.491Z,51219.22
2023-05-05T16:10:48.885Z,51225.22
2023-05-05T16:13:17.641Z,51223.22
2023-05-05T16:15:46.294Z,51187.13
2023-05-05T16:18:14.752Z,51271.38
2023-05-05T16:20:43.139Z,51259.34
2023-05-05T16:23:13.760Z,51161.03
2023-05-05T16:25:43.814Z,51229.25
2023-05-05T16:28:12.381Z,51199.16
2023-05-05T16:30:42.729Z,51239.28
2023-05-05T16:33:11.952Z,51235.25
2023-05-05T16:35:40.625Z,51227.25
2023-05-05T16:38:09.197Z,51227.25
2023-05-05T16:40:40.357Z,51255.31
2023-05-05T16:43:09.065Z,51245.28
2023-05-05T16:45:37.556Z,51251.31
2023-05-05T16:48:08.933Z,51255.31
2023-05-05T16:50:37.869Z,51233.25
2023-05-05T16:53:06.351Z,51277.38
2023-05-05T16:55:35.469Z,51271.38
2023-05-05T16:58:05.602Z,51303.47
2023-05-05T17:00:34.538Z,51303.47
2023-05-05T17:03:03.216Z,51275.38
2023-05-05T17:05:31.764Z,51261.34
2023-05-05T17:08:00.761Z,51313.50
2023-05-05T17:10:29.479Z,51281.41
2023-05-05T17:12:58.043Z,51315.50
2023-05-05T17:15:28.006Z,51281.41
2023-05-05T17:17:56.443Z,51321.50
2023-05-05T17:20:24.973Z,51295.44
2023-05-05T17:22:53.618Z,51315.50
2023-05-05T17:25:22.128Z,51315.50
2023-05-05T17:27:50.930Z,51331.53
2023-05-05T17:30:19.910Z,51329.53
2023-05-05T17:32:50.314Z,51363.63
2023-05-05T17:35:19.244Z,51351.59
2023-05-05T17:37:47.864Z,51349.59
2023-05-05T17:40:16.427Z,51323.53
2023-05-05T17:42:45.179Z,51343.59
2023-05-05T17:45:13.623Z,51329.53
2023-05-05T17:47:42.222Z,51315.50
2023-05-05T17:50:13.088Z,51361.63
2023-05-05T17:52:41.829Z,51339.56
2023-05-05T17:55:11.156Z,51319.50
2023-05-05T17:57:40.045Z,51335.56
2023-05-05T18:26:50.004Z,51381.69
2023-05-05T18:29:19.090Z,51431.84
2023-05-05T18:31:49.395Z,51401.75
2023-05-05T18:34:18.367Z,51395.72
2023-05-05T18:36:47.790Z,51381.69
2023-05-05T18:39:16.605Z,51421.81
2023-05-05T18:41:46.884Z,51391.72
2023-05-05T18:44:15.757Z,51443.88
2023-05-05T18:46:46.719Z,51411.78
2023-05-05T18:49:15.568Z,51419.81
2023-05-05T18:51:45.283Z,51405.75
2023-05-05T18:54:13.923Z,51427.84
2023-05-05T18:56:42.602Z,51411.78
2023-05-05T18:59:12.425Z,51415.78
2023-05-05T19:01:43.037Z,51407.78
2023-05-05T19:04:26.828Z,51445.88
2023-05-05T19:06:59.115Z,51435.84
2023-05-05T19:09:27.593Z,51451.91
2023-05-05T19:11:56.161Z,51391.72
2023-05-05T19:14:26.417Z,51445.88
2023-05-05T19:16:56.142Z,51484.00
2023-05-05T19:19:24.912Z,51482.00
2023-05-05T19:21:53.348Z,51465.94
2023-05-05T19:24:21.688Z,51477.97
2023-05-05T19:26:50.040Z,51498.03
2023-05-05T19:29:18.466Z,51494.03
2023-05-05T19:31:48.332Z,51455.91
2023-05-05T19:34:16.747Z,51439.88
2023-05-05T19:36:45.148Z,51451.91
2023-05-05T19:39:15.697Z,51449.91
2023-05-05T19:41:44.258Z,51479.97
2023-05-05T19:44:12.678Z,51512.09
2023-05-05T19:46:41.336Z,51524.13
2023-05-05T19:49:11.205Z,51500.03
2023-05-05T19:51:39.547Z,51508.06
2023-05-05T19:54:07.908Z,51500.03
2023-05-05T19:56:36.298Z,51484.00
2023-05-05T19:59:06.301Z,51504.06
2023-05-05T20:01:36.124Z,51506.06
2023-05-05T20:04:04.633Z,51506.06
2023-05-05T20:06:35.908Z,51494.03
2023-05-05T20:09:04.904Z,51508.06
2023-05-05T20:11:33.722Z,51518.09
2023-05-05T20:14:02.248Z,51488.00
2023-05-05T20:16:31.164Z,51484.00
2023-05-05T20:18:59.853Z,51465.94
2023-05-05T20:21:28.980Z,51504.06
2023-05-05T20:23:59.577Z,51465.94
2023-05-05T20:26:27.999Z,51494.03
2023-05-05T20:28:56.434Z,51477.97
2023-05-05T20:31:24.998Z,51504.06
2023-05-05T20:33:53.694Z,51488.00
2023-05-05T20:36:22.777Z,51508.06
2023-05-05T20:38:51.841Z,51477.97
2023-05-05T20:41:22.010Z,51494.03
2023-05-05T20:43:50.469Z,51524.13
2023-05-05T20:46:18.871Z,51496.03
2023-05-05T20:48:47.853Z,51506.06
2023-05-05T20:51:16.491Z,51520.09
2023-05-05T20:53:44.820Z,51498.03
2023-05-05T20:56:13.180Z,51494.03
2023-05-05T20:58:42.916Z,51528.13
2023-05-05T21:01:11.311Z,51492.03
2023-05-05T21:03:39.657Z,51504.06
2023-05-05T21:06:08.089Z,51532.13
2023-05-05T21:08:36.488Z,51477.97
2023-05-05T21:11:10.046Z,51532.13
2023-05-05T21:13:38.605Z,51500.03
2023-05-05T21:16:08.413Z,51524.13
2023-05-05T21:18:36.855Z,51518.09
2023-05-05T21:21:05.400Z,51504.06
2023-05-05T21:23:34.021Z,51484.00
2023-05-05T21:26:03.239Z,51516.09
2023-05-05T21:28:31.754Z,51558.22
2023-05-05T21:31:20.695Z,51548.19
2023-05-05T21:33:50.002Z,51518.09
2023-05-05T21:36:19.214Z,51508.06
2023-05-05T21:38:47.926Z,51510.06
2023-05-05T21:41:16.604Z,51550.19
2023-05-05T21:43:45.114Z,51528.13
2023-05-05T21:46:13.534Z,51514.09
2023-05-05T21:48:41.882Z,51546.19
2023-05-05T21:51:11.650Z,51576.28
2023-05-05T21:53:40.080Z,51552.19
2023-05-05T21:56:08.880Z,51520.09
2023-05-05T21:58:37.255Z,51524.13
2023-05-05T22:01:05.701Z,51560.22
2023-05-05T22:03:35.014Z,51514.09
2023-05-05T22:06:04.063Z,51544.19
2023-05-05T22:08:33.796Z,51542.16
2023-05-05T22:11:02.584Z,51516.09
2023-05-05T22:13:31.253Z,51532.13
2023-05-05T22:15:59.650Z,51542.16
2023-05-05T22:18:28.172Z,51538.16
2023-05-05T22:20:56.950Z,51544.19
2023-05-05T22:23:25.371Z,51544.19
2023-05-05T22:25:55.183Z,51548.19
2023-05-05T22:28:23.927Z,51584.28
2023-05-05T22:30:52.305Z,51568.25
2023-05-05T22:33:20.728Z,51576.28
2023-05-05T22:35:49.120Z,51578.28
2023-05-05T22:38:17.879Z,51598.34
2023-05-05T22:40:47.041Z,51596.34
2023-05-05T22:43:16.878Z,51574.28
2023-05-05T22:45:45.290Z,51606.38
2023-05-05T22:48:13.686Z,51562.22
2023-05-05T22:50:42.305Z,51562.22
2023-05-05T22:53:10.663Z,51586.31
2023-05-05T22:55:39.076Z,51604.34
2023-05-05T22:58:07.534Z,51556.22
2023-05-05T23:00:37.381Z,51598.34
2023-05-05T23:03:05.813Z,51556.22
2023-05-05T23:05:34.460Z,51544.19
2023-05-05T23:08:03.171Z,51578.28
2023-05-05T23:10:31.574Z,51556.22
2023-05-05T23:13:00.338Z,51588.31
2023-05-05T23:15:28.847Z,51542.16
2023-05-05T23:17:58.907Z,51566.25
2023-05-05T23:20:27.661Z,51564.25
2023-05-05T23:22:56.515Z,51580.28
2023-05-05T23:25:24.881Z,51572.25
2023-05-05T23:27:53.503Z,51600.34
2023-05-05T23:30:22.159Z,51584.28
2023-05-05T23:32:50.715Z,51556.22
2023-05-05T23:35:20.770Z,51568.25
2023-05-05T23:37:49.640Z,51574.28
2023-05-05T23:40:18.118Z,51528.13
2023-05-05T23:42:46.715Z,51546.19
2023-05-05T23:45:15.984Z,51586.31
2023-05-05T23:47:45.390Z,51600.34
2023-05-05T23:50:13.767Z,51596.34
2023-05-05T23:52:43.444Z,51568.25
2023-05-05T23:55:12.109Z,51600.34
2023-05-05T23:57:40.605Z,51590.31
